createdAt,value
2023-06-14T00:01:35.614Z,11.93
2023-06-14T00:04:03.019Z,11.55
2023-06-14T00:06:30.213Z,13.43
2023-06-14T00:08:57.502Z,13.73
2023-06-14T00:11:24.453Z,14.75
2023-06-14T00:13:51.381Z,12.93
2023-06-14T00:16:18.727Z,15.70
2023-06-14T00:18:46.949Z,12.40
2023-06-14T00:21:13.914Z,13.48
2023-06-14T00:23:41.123Z,13.30
2023-06-14T00:26:08.145Z,12.70
2023-06-14T00:28:35.974Z,12.60
2023-06-14T00:31:02.912Z,14.32
2023-06-14T00:33:29.950Z,14.40
2023-06-14T00:35:56.937Z,14.60
2023-06-14T00:38:24.006Z,12.95
2023-06-14T00:40:52.148Z,11.52
2023-06-14T00:43:19.231Z,12.05
2023-06-14T00:45:46.669Z,11.50
2023-06-14T00:48:14.914Z,10.60
2023-06-14T00:50:46.920Z,12.65
2023-06-14T00:53:18.673Z,10.88
2023-06-14T00:55:45.900Z,10.77
2023-06-14T00:58:13.021Z,11.20
2023-06-14T01:00:40.032Z,12.10
2023-06-14T01:03:07.511Z,13.93
2023-06-14T01:05:37.074Z,10.25
2023-06-14T01:08:38.739Z,11.75
2023-06-14T01:11:17.476Z,12.68
2023-06-14T01:13:47.535Z,10.63
2023-06-14T01:16:15.473Z,9.57
2023-06-14T01:18:43.024Z,11.13
2023-06-14T01:21:22.011Z,13.40
2023-06-14T01:23:54.311Z,12.55
2023-06-14T01:26:23.191Z,12.48
2023-06-14T01:28:59.675Z,13.10
2023-06-14T01:31:28.281Z,10.40
2023-06-14T01:33:56.066Z,13.43
2023-06-14T01:36:28.870Z,16.30
2023-06-14T01:39:00.724Z,11.32
2023-06-14T01:41:30.898Z,11.98
2023-06-14T01:43:59.282Z,13.25
2023-06-14T01:46:26.470Z,11.90
2023-06-14T01:48:55.963Z,11.73
2023-06-14T01:51:22.937Z,12.27
2023-06-14T01:53:49.975Z,12.90
2023-06-14T01:56:17.384Z,10.82
2023-06-14T01:58:44.577Z,10.82
2023-06-14T02:01:12.784Z,12.32
2023-06-14T02:03:40.042Z,13.35
2023-06-14T02:06:07.201Z,12.02
2023-06-14T02:08:34.366Z,14.00
2023-06-14T02:11:01.786Z,12.18
2023-06-14T02:13:28.997Z,12.55
2023-06-14T02:15:56.853Z,11.75
2023-06-14T02:18:24.834Z,13.10
2023-06-14T02:21:11.661Z,13.32
2023-06-14T02:23:38.623Z,13.10
2023-06-14T02:26:05.606Z,12.32
2023-06-14T02:28:36.752Z,12.32
2023-06-14T02:31:03.931Z,13.73
2023-06-14T02:33:31.367Z,13.02
2023-06-14T02:35:58.744Z,13.77
2023-06-14T02:38:25.901Z,13.73
2023-06-14T02:40:52.899Z,12.57
2023-06-14T02:43:21.030Z,10.65
2023-06-14T02:45:48.054Z,12.15
2023-06-14T02:48:15.129Z,14.35
2023-06-14T02:50:42.165Z,11.68
2023-06-14T02:53:09.207Z,11.93
2023-06-14T02:55:41.121Z,12.75
2023-06-14T02:58:09.314Z,11.27
2023-06-14T03:00:37.461Z,11.57
2023-06-14T03:03:10.978Z,13.60
2023-06-14T03:05:38.116Z,12.10
2023-06-14T03:08:06.888Z,11.18
2023-06-14T03:10:34.289Z,16.48
2023-06-14T03:13:02.716Z,15.07
2023-06-14T03:15:30.433Z,14.75
2023-06-14T03:18:00.399Z,14.98
2023-06-14T03:20:30.132Z,15.70
2023-06-14T03:25:24.462Z,14.50
2023-06-14T03:27:53.045Z,13.37
2023-06-14T03:30:21.006Z,14.60
2023-06-14T03:32:53.107Z,13.70
2023-06-14T03:35:20.901Z,15.27
2023-06-14T03:37:49.616Z,12.85
2023-06-14T03:40:19.656Z,12.38
2023-06-14T03:42:49.959Z,12.07
2023-06-14T03:45:17.105Z,14.65
2023-06-14T03:47:44.260Z,13.70
2023-06-14T03:50:12.378Z,16.75
2023-06-14T03:52:39.708Z,17.70
2023-06-14T03:57:37.947Z,17.65
2023-06-14T04:00:11.771Z,16.30
2023-06-14T04:02:41.931Z,14.40
2023-06-14T04:05:11.632Z,15.25
2023-06-14T04:07:46.256Z,12.10
2023-06-14T04:10:14.415Z,16.85
2023-06-14T04:12:44.058Z,14.82
2023-06-14T04:15:20.478Z,14.50
2023-06-14T04:17:48.547Z,12.20
2023-06-14T04:20:18.064Z,16.70
2023-06-14T04:22:45.318Z,12.27
2023-06-14T04:25:13.171Z,12.48
2023-06-14T04:27:42.962Z,13.48
2023-06-14T04:30:11.418Z,15.55
2023-06-14T04:32:45.192Z,14.73
2023-06-14T04:35:13.970Z,16.73
2023-06-14T04:37:46.390Z,12.60
2023-06-14T04:40:13.885Z,12.98
2023-06-14T04:42:42.092Z,15.07
2023-06-14T04:47:40.025Z,16.10
2023-06-14T04:50:08.163Z,14.43
2023-06-14T04:52:36.517Z,15.13
2023-06-14T04:57:32.507Z,17.25
2023-06-14T05:00:02.058Z,16.00
2023-06-14T05:02:34.568Z,15.13
2023-06-14T05:05:02.957Z,18.02
2023-06-14T05:07:32.720Z,16.55
2023-06-14T05:09:59.696Z,15.38
2023-06-14T05:12:26.848Z,15.18
2023-06-14T05:14:54.115Z,17.15
2023-06-14T05:17:23.617Z,16.08
2023-06-14T05:19:50.845Z,16.95
2023-06-14T05:22:17.795Z,13.55
2023-06-14T05:24:45.082Z,16.15
2023-06-14T05:27:12.176Z,14.98
2023-06-14T05:29:39.256Z,17.75
2023-06-14T05:32:06.613Z,17.52
2023-06-14T05:34:33.862Z,14.45
2023-06-14T05:37:01.439Z,17.83
2023-06-14T05:39:28.439Z,19.38
2023-06-14T05:41:55.392Z,20.15
2023-06-14T05:44:22.503Z,18.65
2023-06-14T05:46:49.515Z,17.98
2023-06-14T05:49:16.601Z,21.17
2023-06-14T05:51:43.708Z,19.30
2023-06-14T05:54:10.948Z,18.77
2023-06-14T05:56:38.016Z,16.40
2023-06-14T05:59:05.041Z,19.33
2023-06-14T06:01:33.979Z,17.92
2023-06-14T06:04:01.082Z,18.65
2023-06-14T06:06:28.154Z,17.85
2023-06-14T06:08:55.203Z,17.88
2023-06-14T06:11:22.170Z,20.10
2023-06-14T06:13:49.200Z,17.85
2023-06-14T06:16:16.383Z,18.05
2023-06-14T06:18:44.811Z,21.52
2023-06-14T06:21:12.781Z,20.15
2023-06-14T06:23:39.823Z,17.05
2023-06-14T06:26:07.356Z,19.48
2023-06-14T06:28:34.321Z,19.38
2023-06-14T06:31:04.660Z,20.50
2023-06-14T06:33:32.487Z,20.10
2023-06-14T06:35:59.608Z,19.27
2023-06-14T06:38:26.926Z,21.20
2023-06-14T06:40:55.460Z,19.27
2023-06-14T06:43:22.680Z,17.77
2023-06-14T06:45:50.893Z,19.65
2023-06-14T06:48:17.956Z,19.40
2023-06-14T06:50:45.689Z,20.60
2023-06-14T06:53:14.003Z,20.80
2023-06-14T06:55:43.642Z,19.17
2023-06-14T06:58:11.004Z,25.48
2023-06-14T07:00:38.073Z,23.25
2023-06-14T07:03:05.286Z,20.88
2023-06-14T07:05:33.365Z,20.75
2023-06-14T07:08:01.669Z,20.05
2023-06-14T07:10:28.741Z,23.02
2023-06-14T07:12:56.023Z,23.95
2023-06-14T07:15:23.146Z,19.10
2023-06-14T07:17:50.273Z,20.30
2023-06-14T07:20:17.534Z,20.25
2023-06-14T07:22:44.772Z,21.98
2023-06-14T07:25:16.936Z,19.77
2023-06-14T07:27:44.970Z,22.08
2023-06-14T07:30:12.460Z,18.63
2023-06-14T07:32:39.928Z,19.42
2023-06-14T07:35:07.900Z,23.45
2023-06-14T07:37:35.076Z,21.55
2023-06-14T07:40:04.928Z,23.77
2023-06-14T07:42:32.066Z,27.77
2023-06-14T07:44:59.245Z,23.85
2023-06-14T07:47:26.644Z,22.48
2023-06-14T07:49:54.043Z,23.10
2023-06-14T07:52:21.265Z,24.80
2023-06-14T07:54:48.466Z,25.83
2023-06-14T07:57:15.907Z,23.48
2023-06-14T07:59:43.087Z,22.20
2023-06-14T08:02:10.088Z,24.17
2023-06-14T08:04:37.427Z,19.15
2023-06-14T08:07:06.266Z,22.42
2023-06-14T08:09:36.064Z,17.73
2023-06-14T08:12:03.003Z,21.08
2023-06-14T08:14:30.896Z,16.83
2023-06-14T08:16:57.807Z,14.80
2023-06-14T08:19:24.808Z,12.18
2023-06-14T08:21:51.869Z,16.70
2023-06-14T08:24:20.078Z,13.20
2023-06-14T08:26:47.403Z,14.45
2023-06-14T08:29:14.296Z,16.10
2023-06-14T08:31:41.819Z,15.18
2023-06-14T08:34:08.987Z,19.80
2023-06-14T08:36:38.744Z,18.13
2023-06-14T08:39:05.910Z,16.95
2023-06-14T08:41:34.032Z,18.77
2023-06-14T08:44:01.211Z,17.73
2023-06-14T08:46:28.957Z,19.15
2023-06-14T08:48:59.953Z,17.60
2023-06-14T08:51:34.994Z,15.98
2023-06-14T08:54:02.961Z,17.77
2023-06-14T08:56:30.539Z,17.33
2023-06-14T08:59:04.214Z,21.05
2023-06-14T09:01:35.783Z,15.50
2023-06-14T09:04:03.854Z,18.02
2023-06-14T09:06:31.306Z,15.63
2023-06-14T09:08:58.739Z,16.38
2023-06-14T09:11:28.080Z,17.33
2023-06-14T09:16:22.181Z,14.00
2023-06-14T09:18:49.471Z,15.77
2023-06-14T09:21:18.195Z,17.52
2023-06-14T09:23:47.028Z,18.55
2023-06-14T09:26:20.524Z,15.60
2023-06-14T09:28:51.009Z,16.77
2023-06-14T09:31:20.638Z,16.25
2023-06-14T09:33:50.163Z,15.82
2023-06-14T09:36:23.775Z,18.58
2023-06-14T09:38:58.919Z,18.52
2023-06-14T09:41:40.541Z,18.90
2023-06-14T09:44:12.654Z,16.42
2023-06-14T09:46:45.414Z,16.70
2023-06-14T09:49:12.730Z,16.80
2023-06-14T09:51:50.931Z,17.15
2023-06-14T09:54:23.454Z,15.20
2023-06-14T09:56:52.667Z,15.00
2023-06-14T09:59:32.164Z,14.20
2023-06-14T10:02:01.928Z,15.80
2023-06-14T10:04:32.706Z,15.82
2023-06-14T10:07:02.465Z,14.93
2023-06-14T10:09:32.941Z,16.77
2023-06-14T10:12:01.713Z,18.65
2023-06-14T10:14:29.501Z,16.13
2023-06-14T10:17:11.410Z,15.25
2023-06-14T10:20:15.684Z,16.20
2023-06-14T10:22:54.479Z,16.33
2023-06-14T10:25:31.813Z,16.50
2023-06-14T10:28:05.559Z,16.80
2023-06-14T10:30:32.972Z,16.98
2023-06-14T10:33:08.711Z,15.38
2023-06-14T10:35:35.882Z,15.88
2023-06-14T10:38:10.784Z,14.15
2023-06-14T10:40:38.108Z,14.73
2023-06-14T10:43:34.386Z,15.88
2023-06-14T10:46:18.304Z,14.05
2023-06-14T10:48:46.245Z,16.13
2023-06-14T10:51:21.532Z,15.05
2023-06-14T10:53:50.167Z,15.73
2023-06-14T10:56:33.898Z,15.97
2023-06-14T10:59:01.225Z,12.93
2023-06-14T11:01:48.479Z,15.75
2023-06-14T11:04:18.394Z,13.52
2023-06-14T11:06:50.902Z,15.90
2023-06-14T11:09:43.288Z,15.40
2023-06-14T11:12:12.939Z,14.40
2023-06-14T11:14:41.152Z,12.75
2023-06-14T11:17:08.403Z,15.75
2023-06-14T11:19:35.439Z,14.75
2023-06-14T11:22:02.433Z,15.55
2023-06-14T11:24:29.564Z,18.13
2023-06-14T11:26:57.985Z,14.38
2023-06-14T11:29:25.498Z,13.68
2023-06-14T11:31:52.643Z,13.85
2023-06-14T11:34:19.755Z,16.45
2023-06-14T11:36:48.637Z,14.27
2023-06-14T11:39:15.715Z,15.60
2023-06-14T11:41:46.579Z,15.43
2023-06-14T11:44:14.030Z,12.55
2023-06-14T11:46:41.439Z,12.07
2023-06-14T11:49:10.319Z,12.32
2023-06-14T11:51:38.247Z,15.35
2023-06-14T11:54:07.188Z,12.02
2023-06-14T11:56:34.741Z,14.43
2023-06-14T11:59:04.336Z,15.70
2023-06-14T12:01:33.031Z,12.40
2023-06-14T12:04:02.069Z,16.33
2023-06-14T12:06:34.633Z,12.48
2023-06-14T12:09:06.025Z,12.25
2023-06-14T12:11:35.268Z,12.05
2023-06-14T12:16:34.229Z,10.32
2023-06-14T12:19:08.814Z,10.52
2023-06-14T12:21:37.173Z,12.10
2023-06-14T12:24:05.109Z,17.87
2023-06-14T12:26:32.902Z,12.95
2023-06-14T12:29:00.773Z,11.52
2023-06-14T12:31:27.951Z,11.88
2023-06-14T12:33:55.080Z,11.02
2023-06-14T12:36:22.326Z,12.88
2023-06-14T12:38:49.596Z,11.68
2023-06-14T12:41:16.962Z,11.23
2023-06-14T12:43:44.089Z,11.90
2023-06-14T12:46:11.256Z,15.50
2023-06-14T12:48:38.356Z,12.82
2023-06-14T12:51:06.460Z,10.68
2023-06-14T12:53:33.757Z,10.55
2023-06-14T12:56:00.926Z,11.73
2023-06-14T12:58:28.144Z,10.25
2023-06-14T13:00:55.148Z,14.43
2023-06-14T13:03:22.201Z,10.15
2023-06-14T13:05:50.212Z,10.95
2023-06-14T13:08:17.351Z,9.77
2023-06-14T13:10:44.385Z,11.50
2023-06-14T13:13:13.666Z,12.93
2023-06-14T13:18:08.654Z,16.25
2023-06-14T13:20:35.706Z,13.00
2023-06-14T13:23:04.491Z,9.73
2023-06-14T13:25:31.717Z,11.63
2023-06-14T13:27:58.736Z,10.38
2023-06-14T13:30:25.944Z,16.08
2023-06-14T13:32:53.334Z,11.43
2023-06-14T13:35:20.827Z,11.60
2023-06-14T13:37:47.910Z,12.68
2023-06-14T13:40:15.687Z,14.02
2023-06-14T13:42:43.088Z,12.95
2023-06-14T13:45:12.837Z,13.98
2023-06-14T13:47:39.966Z,14.05
2023-06-14T13:50:07.713Z,13.63
2023-06-14T13:52:36.057Z,15.48
2023-06-14T13:55:03.565Z,14.88
2023-06-14T13:57:31.267Z,14.85
2023-06-14T14:00:02.466Z,14.98
2023-06-14T14:02:44.110Z,15.35
2023-06-14T14:05:11.556Z,14.95
2023-06-14T14:07:39.289Z,13.73
2023-06-14T14:10:07.484Z,15.52
2023-06-14T14:12:34.666Z,12.05
2023-06-14T14:15:02.498Z,12.30
2023-06-14T14:17:32.643Z,13.80
2023-06-14T14:20:00.191Z,14.45
2023-06-14T14:22:27.349Z,12.18
2023-06-14T14:24:54.477Z,12.15
2023-06-14T14:27:21.584Z,14.02
2023-06-14T14:29:48.607Z,13.18
2023-06-14T14:32:16.155Z,14.07
2023-06-14T14:34:43.285Z,13.55
2023-06-14T14:37:10.445Z,15.43
2023-06-14T14:39:38.144Z,12.75
2023-06-14T14:42:05.730Z,12.18
2023-06-14T14:44:35.127Z,18.30
2023-06-14T14:47:02.891Z,15.07
2023-06-14T14:49:30.048Z,12.57
2023-06-14T14:52:01.100Z,13.40
2023-06-14T14:54:32.593Z,13.32
2023-06-14T14:56:59.631Z,12.18
2023-06-14T14:59:26.788Z,13.55
2023-06-14T15:01:53.998Z,11.77
2023-06-14T15:04:21.201Z,11.48
2023-06-14T15:06:48.353Z,14.45
2023-06-14T15:09:15.932Z,16.30
2023-06-14T15:11:45.374Z,14.45
2023-06-14T15:14:12.489Z,14.82
2023-06-14T15:16:39.853Z,13.73
2023-06-14T15:19:06.912Z,14.75
2023-06-14T15:21:33.948Z,12.55
2023-06-14T15:24:01.054Z,16.52
2023-06-14T15:26:28.836Z,17.15
2023-06-14T15:28:56.059Z,16.35
2023-06-14T15:31:24.977Z,15.52
2023-06-14T15:33:52.131Z,16.45
2023-06-14T15:36:19.126Z,21.60
2023-06-14T15:38:46.306Z,15.73
2023-06-14T15:41:13.513Z,15.85
2023-06-14T15:43:40.741Z,16.13
2023-06-14T15:46:07.930Z,17.48
2023-06-14T15:48:35.532Z,15.50
2023-06-14T15:51:02.716Z,16.13
2023-06-14T15:53:29.703Z,17.42
2023-06-14T15:55:56.709Z,16.10
2023-06-14T15:58:23.800Z,15.43
2023-06-14T16:00:50.922Z,16.33
2023-06-14T16:03:18.480Z,30.15
2023-06-14T16:05:45.571Z,33.03
2023-06-14T16:08:14.322Z,20.70
2023-06-14T16:10:44.181Z,15.88
2023-06-14T16:13:11.160Z,15.05
2023-06-14T16:15:38.271Z,15.35
2023-06-14T16:18:05.323Z,13.15
2023-06-14T16:20:32.472Z,12.98
2023-06-14T16:22:59.404Z,13.88
2023-06-14T16:25:26.622Z,14.55
2023-06-14T16:27:53.742Z,19.23
2023-06-14T16:30:20.956Z,16.85
2023-06-14T16:32:51.378Z,15.48
2023-06-14T16:35:20.042Z,13.57
2023-06-14T16:37:47.207Z,15.25
2023-06-14T16:40:14.448Z,12.57
2023-06-14T16:42:41.812Z,14.18
2023-06-14T16:45:09.006Z,12.95
2023-06-14T16:47:36.736Z,14.23
2023-06-14T16:50:04.174Z,13.18
2023-06-14T16:52:31.470Z,14.73
2023-06-14T16:54:58.510Z,13.82
2023-06-14T16:57:25.666Z,21.00
2023-06-14T16:59:52.682Z,15.05
2023-06-14T17:02:20.176Z,19.35
2023-06-14T17:04:47.200Z,13.50
2023-06-14T17:07:14.435Z,14.95
2023-06-14T17:09:41.637Z,15.07
2023-06-14T17:12:09.007Z,12.70
2023-06-14T17:14:36.241Z,12.95
2023-06-14T17:17:03.828Z,16.63
2023-06-14T17:19:31.189Z,17.08
2023-06-14T17:21:59.206Z,16.42
2023-06-14T17:24:29.377Z,16.05
2023-06-14T17:26:58.137Z,17.35
2023-06-14T17:29:27.662Z,15.63
2023-06-14T17:31:54.978Z,14.10
2023-06-14T17:34:21.970Z,15.63
2023-06-14T17:36:51.881Z,15.55
2023-06-14T17:39:20.135Z,13.75
2023-06-14T17:41:47.269Z,15.18
2023-06-14T17:44:14.533Z,18.05
2023-06-14T17:46:42.811Z,89.93
2023-06-14T17:49:10.416Z,43.78
2023-06-14T17:51:37.653Z,33.83
2023-06-14T17:54:05.000Z,58.28
2023-06-14T17:56:33.629Z,45.03
2023-06-14T17:59:00.917Z,21.23
2023-06-14T18:01:28.140Z,13.65
2023-06-14T18:03:55.307Z,15.07
2023-06-14T18:06:22.333Z,13.80
2023-06-14T18:08:49.346Z,17.40
2023-06-14T18:11:17.132Z,15.77
2023-06-14T18:13:44.812Z,17.38
2023-06-14T18:16:15.085Z,14.73
2023-06-14T18:18:43.196Z,18.90
2023-06-14T18:21:10.529Z,16.98
2023-06-14T18:23:37.797Z,13.88
2023-06-14T18:26:05.469Z,12.30
2023-06-14T18:28:32.485Z,9.35
2023-06-14T18:31:00.061Z,11.82
2023-06-14T18:33:27.257Z,9.93
2023-06-14T18:35:54.412Z,11.88
2023-06-14T18:38:21.623Z,9.43
2023-06-14T18:40:52.684Z,12.00
2023-06-14T18:43:20.234Z,11.40
2023-06-14T18:45:47.325Z,21.80
2023-06-14T18:48:15.869Z,10.10
2023-06-14T18:50:43.162Z,10.98
2023-06-14T18:53:10.546Z,10.02
2023-06-14T18:55:37.607Z,9.80
2023-06-14T18:58:04.902Z,9.77
2023-06-14T19:00:32.808Z,8.23
2023-06-14T19:03:00.498Z,12.77
2023-06-14T19:05:27.678Z,11.35
2023-06-14T19:07:54.746Z,6.53
2023-06-14T19:10:22.784Z,10.10
2023-06-14T19:12:50.366Z,11.20
2023-06-14T19:15:17.872Z,8.52
2023-06-14T19:17:56.565Z,8.43
2023-06-14T19:20:24.451Z,8.82
2023-06-14T19:22:51.661Z,8.02
2023-06-14T19:25:19.565Z,9.93
2023-06-14T19:27:47.904Z,9.73
2023-06-14T19:30:15.841Z,9.63
2023-06-14T19:32:43.548Z,11.05
2023-06-14T19:35:11.387Z,8.65
2023-06-14T19:37:40.713Z,11.45
2023-06-14T19:40:08.720Z,11.90
2023-06-14T19:42:35.816Z,11.80
2023-06-14T19:45:03.123Z,12.88
2023-06-14T19:49:59.415Z,13.32
2023-06-14T19:52:26.373Z,14.02
2023-06-14T19:54:53.421Z,12.23
2023-06-14T19:57:20.395Z,15.70
2023-06-14T19:59:47.470Z,10.93
2023-06-14T20:02:14.858Z,14.48
2023-06-14T20:04:41.994Z,10.60
2023-06-14T20:07:09.022Z,10.57
2023-06-14T20:09:36.408Z,11.13
2023-06-14T20:12:03.783Z,10.88
2023-06-14T20:14:30.910Z,16.30
2023-06-14T20:16:58.532Z,12.93
2023-06-14T20:19:25.625Z,13.25
2023-06-14T20:21:52.604Z,10.32
2023-06-14T20:24:19.657Z,11.82
2023-06-14T20:26:46.720Z,12.25
2023-06-14T20:29:13.633Z,9.45
2023-06-14T20:31:40.903Z,8.13
2023-06-14T20:34:07.918Z,10.38
2023-06-14T20:36:34.815Z,9.18
2023-06-14T20:39:02.017Z,10.75
2023-06-14T20:44:13.376Z,10.38
2023-06-14T20:46:44.912Z,11.50
2023-06-14T20:49:12.934Z,11.02
2023-06-14T20:51:39.980Z,12.38
2023-06-14T20:54:07.091Z,13.48
2023-06-14T20:56:34.201Z,14.60
2023-06-14T20:59:01.198Z,14.88
2023-06-14T21:01:33.830Z,11.63
2023-06-14T21:04:01.013Z,12.48
2023-06-14T21:06:29.864Z,12.15
2023-06-14T21:08:57.895Z,12.30
2023-06-14T21:11:24.800Z,11.65
2023-06-14T21:13:53.074Z,14.13
2023-06-14T21:16:20.155Z,13.25
2023-06-14T21:18:47.514Z,13.40
2023-06-14T21:21:14.512Z,12.57
2023-06-14T21:23:41.601Z,11.25
2023-06-14T21:26:08.590Z,11.60
2023-06-14T21:28:35.750Z,13.20
2023-06-14T21:31:07.011Z,14.85
2023-06-14T21:33:34.060Z,13.93
2023-06-14T21:36:01.553Z,15.85
2023-06-14T21:38:28.516Z,17.02
2023-06-14T21:40:55.598Z,13.45
2023-06-14T21:43:22.521Z,14.10
2023-06-14T21:45:49.674Z,14.65
2023-06-14T21:48:16.737Z,15.02
2023-06-14T21:50:43.781Z,12.95
2023-06-14T21:53:11.050Z,17.52
2023-06-14T21:55:38.114Z,13.55
2023-06-14T21:58:05.010Z,12.68
2023-06-14T22:00:32.179Z,14.23
2023-06-14T22:02:59.197Z,13.25
2023-06-14T22:05:26.345Z,14.55
2023-06-14T22:07:53.365Z,13.63
2023-06-14T22:10:20.616Z,14.05
2023-06-14T22:12:50.263Z,15.38
2023-06-14T22:15:17.816Z,14.40
2023-06-14T22:17:45.054Z,16.85
2023-06-14T22:20:14.635Z,15.73
2023-06-14T22:22:42.060Z,14.20
2023-06-14T22:25:09.665Z,16.75
2023-06-14T22:27:48.127Z,14.63
2023-06-14T22:30:17.135Z,12.65
2023-06-14T22:32:50.057Z,14.05
2023-06-14T22:35:18.062Z,14.40
2023-06-14T22:37:45.828Z,16.00
2023-06-14T22:40:13.160Z,14.13
2023-06-14T22:42:49.761Z,14.82
2023-06-14T22:45:18.275Z,14.75
2023-06-14T22:47:45.747Z,15.77
2023-06-14T22:50:13.150Z,14.75
2023-06-14T22:52:45.580Z,16.92
2023-06-14T22:55:13.529Z,16.90
2023-06-14T22:57:42.045Z,20.67
2023-06-14T23:00:12.920Z,18.75
2023-06-14T23:02:41.147Z,17.85
2023-06-14T23:05:10.554Z,18.03
2023-06-14T23:07:37.938Z,17.30
2023-06-14T23:10:05.802Z,18.40
2023-06-14T23:12:34.721Z,16.23
2023-06-14T23:15:04.038Z,17.60
2023-06-14T23:17:45.798Z,18.70
2023-06-14T23:20:14.175Z,20.52
2023-06-14T23:22:43.101Z,17.35
2023-06-14T23:25:11.127Z,19.60
2023-06-14T23:27:38.440Z,17.17
2023-06-14T23:30:06.683Z,17.48
2023-06-14T23:32:36.071Z,19.33
2023-06-14T23:35:05.898Z,19.15
2023-06-14T23:37:33.651Z,18.95
2023-06-14T23:40:02.329Z,19.92
2023-06-14T23:42:31.263Z,21.20
2023-06-14T23:45:03.249Z,24.30
2023-06-14T23:47:35.151Z,27.77
2023-06-14T23:50:02.509Z,22.52
2023-06-14T23:52:33.209Z,22.23
2023-06-14T23:55:13.429Z,23.08
2023-06-14T23:57:40.523Z,23.08
